Time;durP1;ratioP1;P1;durP2;ratioP2;P2;SDS_P1;SDS_P2;PMS_P1;PMS_P2;Temp;Humidity;BMP_temperature;BMP_pressure;BME280_temperature;BME280_humidity;BME280_pressure;Samples;Min_cycle;Max_cycle;Signal;HPM_P1;HPM_P2
2021/12/06 00:00:25;;;;;;;54.00;36.43;;;;;;;9.33;90.63;98758.38;5112151;28;20713;-61
2021/12/06 00:02:54;;;;;;;60.30;37.43;;;;;;;9.34;91.19;98750.69;5112229;28;20201;-60
2021/12/06 00:05:21;;;;;;;56.83;37.07;;;;;;;9.32;90.98;98757.50;5111974;28;20267;-60
2021/12/06 00:07:49;;;;;;;56.43;36.00;;;;;;;9.37;90.99;98765.22;5112374;28;20197;-62
2021/12/06 00:10:16;;;;;;;55.27;37.40;;;;;;;9.29;91.55;98775.41;5111906;28;20194;-61
2021/12/06 00:12:43;;;;;;;59.67;37.40;;;;;;;9.12;91.61;98750.47;5112201;28;20192;-61
2021/12/06 00:15:12;;;;;;;54.07;35.30;;;;;;;9.39;91.59;98771.25;5112316;28;20197;-61
2021/12/06 00:17:40;;;;;;;51.77;34.93;;;;;;;9.46;90.88;98763.63;5111876;28;20190;-60
2021/12/06 00:20:10;;;;;;;52.23;34.97;;;;;;;9.49;90.65;98771.34;5111983;28;20197;-60
2021/12/06 00:22:38;;;;;;;51.77;34.80;;;;;;;9.50;90.41;98770.47;5111829;28;20204;-60
2021/12/06 00:25:09;;;;;;;50.70;33.90;;;;;;;9.54;90.63;98770.50;5111752;28;20322;-60
2021/12/06 00:27:38;;;;;;;57.58;39.28;;;;;;;9.62;90.31;98758.59;5111300;28;20442;-60
2021/12/06 00:30:07;;;;;;;56.07;36.73;;;;;;;9.67;89.80;98787.75;5111829;28;20190;-60
2021/12/06 00:32:34;;;;;;;54.90;37.03;;;;;;;9.69;89.36;98784.34;5111480;28;20561;-60
2021/12/06 00:35:01;;;;;;;56.83;35.07;;;;;;;9.59;89.34;98767.13;5111620;28;20226;-61
2021/12/06 00:37:33;;;;;;;61.67;35.93;;;;;;;9.72;89.35;98783.50;5111509;28;20189;-60
2021/12/06 00:40:08;;;;;;;63.23;36.93;;;;;;;9.75;89.59;98771.53;5111622;28;20201;-60
2021/12/06 00:42:35;;;;;;;55.43;35.10;;;;;;;9.75;89.30;98768.97;5111632;28;20301;-62
2021/12/06 00:45:04;;;;;;;54.50;34.40;;;;;;;9.71;88.84;98776.63;5111106;28;20201;-60
2021/12/06 00:47:31;;;;;;;58.08;38.88;;;;;;;9.65;89.53;98771.47;5111101;28;20430;-61
2021/12/06 00:49:58;;;;;;;57.03;35.17;;;;;;;9.63;90.25;98774.03;5111384;28;20254;-61
2021/12/06 00:52:25;;;;;;;56.63;36.70;;;;;;;9.63;90.14;98765.47;5111034;28;20226;-60
2021/12/06 00:54:52;;;;;;;57.97;35.80;;;;;;;9.65;90.00;98761.19;5111175;28;20194;-60
2021/12/06 00:57:20;;;;;;;54.00;35.50;;;;;;;9.38;89.93;98742.19;5110735;28;20186;-61
2021/12/06 00:59:47;;;;;;;55.20;35.47;;;;;;;9.60;90.22;98765.44;5110970;28;20683;-61
2021/12/06 01:02:15;;;;;;;55.03;36.50;;;;;;;9.63;90.45;98771.47;5110990;28;20201;-61
2021/12/06 01:04:44;;;;;;;54.03;35.00;;;;;;;9.61;90.40;98754.34;5110870;28;20565;-60
2021/12/06 01:07:12;;;;;;;57.27;35.30;;;;;;;9.58;90.31;98739.78;5111341;28;20192;-60
2021/12/06 01:09:39;;;;;;;59.57;35.30;;;;;;;9.62;90.32;98728.69;5110887;28;20190;-60
2021/12/06 01:12:08;;;;;;;53.23;35.47;;;;;;;9.59;90.54;98730.38;5110900;28;20695;-61
2021/12/06 01:14:36;;;;;;;58.53;35.07;;;;;;;9.54;90.83;98727.78;5110963;28;20259;-60
2021/12/06 01:17:04;;;;;;;58.13;35.33;;;;;;;9.47;91.30;98729.47;5111085;28;20197;-60
2021/12/06 01:19:30;;;;;;;62.33;35.30;;;;;;;9.45;91.62;98738.81;5111036;28;20867;-60
2021/12/06 01:22:10;;;;;;;59.90;34.97;;;;;;;9.50;91.76;98733.75;5111199;28;20208;-60
2021/12/06 01:24:42;;;;;;;56.53;35.90;;;;;;;9.46;91.95;98730.28;5111043;28;20190;-60
2021/12/06 01:27:26;;;;;;;62.27;35.93;;;;;;;9.22;92.60;98685.66;5110638;28;20229;-60
2021/12/06 01:30:18;;;;;;;59.93;33.07;;;;;;;9.49;92.16;98732.03;5110683;28;20196;-60
2021/12/06 01:33:06;;;;;;;53.20;33.33;;;;;;;9.46;92.20;98724.28;5110352;28;20318;-61
2021/12/06 01:41:02;;;;;;;63.83;34.20;;;;;;;9.49;92.97;98734.59;5110635;28;20238;-60
2021/12/06 01:43:29;;;;;;;57.97;34.27;;;;;;;9.47;93.26;98710.66;5110648;28;20329;-60
2021/12/06 01:45:57;;;;;;;58.17;34.30;;;;;;;9.45;92.65;98718.31;5110477;28;20194;-61
2021/12/06 01:48:24;;;;;;;55.60;33.47;;;;;;;9.48;92.68;98708.06;5110672;28;20683;-60
2021/12/06 01:50:52;;;;;;;57.83;35.67;;;;;;;9.48;92.43;98712.34;5110377;28;20687;-60
2021/12/06 01:53:19;;;;;;;63.67;34.57;;;;;;;9.46;92.72;98717.47;5110300;28;20197;-60
2021/12/06 01:55:45;;;;;;;56.33;33.47;;;;;;;9.53;92.85;98710.69;5110608;28;20186;-60
2021/12/06 01:58:12;;;;;;;58.73;33.67;;;;;;;9.51;92.66;98699.53;5110640;28;20244;-60
2021/12/06 02:00:44;;;;;;;55.43;33.13;;;;;;;9.49;92.80;98701.25;5110555;28;20259;-60
2021/12/06 02:03:13;;;;;;;58.27;32.57;;;;;;;9.52;92.84;98708.97;5110268;28;20194;-61
2021/12/06 02:05:42;;;;;;;57.93;34.83;;;;;;;9.55;92.84;98706.44;5110163;28;20188;-61
2021/12/06 02:08:09;;;;;;;59.87;34.40;;;;;;;9.57;92.47;98704.72;5110665;28;20193;-60
2021/12/06 02:10:38;;;;;;;64.23;33.33;;;;;;;9.52;92.49;98702.97;5113511;28;20197;-60
2021/12/06 02:13:06;;;;;;;65.63;34.60;;;;;;;9.53;93.00;98704.72;5114431;28;20693;-60
2021/12/06 02:15:41;;;;;;;63.50;34.40;;;;;;;9.54;92.87;98693.59;5114292;28;20251;-60
2021/12/06 02:18:16;;;;;;;71.33;35.03;;;;;;;9.43;92.91;98696.94;5114121;28;20196;-60
2021/12/06 02:20:49;;;;;;;73.93;35.07;;;;;;;9.41;93.10;98687.53;5114262;28;20283;-60
2021/12/06 02:23:19;;;;;;;69.30;35.50;;;;;;;9.41;93.47;98695.22;5114240;28;20277;-60
2021/12/06 02:25:46;;;;;;;66.20;33.17;;;;;;;9.31;93.45;98676.31;5113894;28;20193;-60
2021/12/06 02:28:13;;;;;;;70.03;34.23;;;;;;;9.18;93.86;98682.19;5113864;28;20223;-60
2021/12/06 02:30:40;;;;;;;72.63;32.77;;;;;;;9.21;93.99;98697.59;5113905;28;20564;-60
2021/12/06 02:33:07;;;;;;;74.47;32.23;;;;;;;9.13;94.36;98711.19;5113710;28;20280;-60
2021/12/06 02:35:33;;;;;;;76.43;33.63;;;;;;;9.16;94.39;98711.22;5113701;28;20197;-61
2021/12/06 02:38:02;;;;;;;72.93;32.63;;;;;;;9.19;94.18;98681.38;5113858;28;20211;-61
2021/12/06 02:40:33;;;;;;;74.20;32.97;;;;;;;9.13;94.44;98680.44;5113735;28;20272;-61
2021/12/06 02:43:02;;;;;;;69.80;30.93;;;;;;;9.19;94.84;98663.41;5113974;28;20182;-60
2021/12/06 02:45:30;;;;;;;64.83;29.63;;;;;;;9.13;94.70;98672.75;5113693;28;20668;-61
2021/12/06 02:48:01;;;;;;;63.13;29.90;;;;;;;8.92;95.39;98677.69;5113699;28;20193;-60
2021/12/06 02:50:31;;;;;;;70.83;31.80;;;;;;;9.05;95.60;98674.38;5113895;28;20189;-60
2021/12/06 02:52:58;;;;;;;69.77;30.90;;;;;;;8.96;95.78;98648.69;5113933;28;20219;-60
2021/12/06 02:55:32;;;;;;;78.83;33.60;;;;;;;9.18;95.38;98666.81;5113504;28;20226;-61
2021/12/06 02:58:12;;;;;;;68.97;30.90;;;;;;;9.29;95.29;98680.56;5113890;28;20189;-60
2021/12/06 03:00:40;;;;;;;71.80;31.43;;;;;;;9.35;94.63;98679.78;5113671;28;20255;-60
2021/12/06 03:03:06;;;;;;;68.10;30.67;;;;;;;9.35;93.89;98667.81;5113473;28;20197;-60
2021/12/06 03:05:33;;;;;;;74.90;31.63;;;;;;;9.47;94.02;98664.50;5113685;28;20190;-60
2021/12/06 03:08:02;;;;;;;77.07;34.30;;;;;;;9.52;93.53;98675.63;5112905;28;20426;-60
2021/12/06 03:10:30;;;;;;;67.23;31.23;;;;;;;9.52;93.11;98679.91;5113539;28;20228;-60
2021/12/06 03:12:57;;;;;;;78.60;32.17;;;;;;;9.52;92.83;98691.03;5113159;28;20217;-60
2021/12/06 03:15:26;;;;;;;63.90;30.73;;;;;;;9.36;92.82;98669.56;5113076;28;20194;-60
2021/12/06 03:17:52;;;;;;;74.97;31.67;;;;;;;9.52;93.10;98690.16;5113131;28;20194;-60
2021/12/06 03:20:19;;;;;;;72.93;29.40;;;;;;;9.54;93.44;98698.72;5112778;28;20193;-60
2021/12/06 03:22:46;;;;;;;62.80;31.97;;;;;;;9.57;92.92;98714.13;5112984;28;20190;-62
2021/12/06 03:25:15;;;;;;;67.53;30.60;;;;;;;9.62;92.47;98691.94;5113000;28;20606;-60
2021/12/06 03:27:42;;;;;;;60.33;29.33;;;;;;;9.63;92.31;98685.97;5112731;28;20229;-61
2021/12/06 03:30:11;;;;;;;69.97;30.37;;;;;;;9.65;92.28;98674.88;5112839;28;20250;-60
2021/12/06 03:32:40;;;;;;;65.87;29.80;;;;;;;9.65;92.27;98671.44;5112786;28;20221;-60
2021/12/06 03:35:08;;;;;;;69.07;31.43;;;;;;;9.68;91.45;98672.31;5112794;28;20671;-60
2021/12/06 03:37:35;;;;;;;64.70;31.07;;;;;;;9.69;91.85;98681.75;5112974;28;20197;-61
2021/12/06 03:40:03;;;;;;;75.80;31.57;;;;;;;9.70;91.38;98680.88;5112555;28;20190;-61
2021/12/06 03:42:30;;;;;;;63.17;30.70;;;;;;;9.69;90.78;98681.75;5112822;28;20190;-60
2021/12/06 03:44:56;;;;;;;67.50;31.93;;;;;;;9.69;91.10;98660.38;5112461;28;20687;-62
2021/12/06 03:47:28;;;;;;;61.60;29.53;;;;;;;9.70;90.86;98675.75;5112317;28;20200;-62
2021/12/06 03:49:56;;;;;;;64.27;28.87;;;;;;;9.73;91.20;98687.72;5112757;28;20190;-62
2021/12/06 03:52:23;;;;;;;57.40;29.30;;;;;;;9.71;90.66;98698.00;5112338;28;20214;-61
2021/12/06 03:54:51;;;;;;;60.33;31.10;;;;;;;9.75;90.97;98702.28;5112445;28;20212;-61
2021/12/06 03:57:19;;;;;;;64.90;30.50;;;;;;;9.57;90.52;98661.13;5112347;28;20663;-61
2021/12/06 03:59:46;;;;;;;60.73;30.33;;;;;;;9.76;90.61;98686.06;5112053;28;20193;-61
2021/12/06 04:02:12;;;;;;;57.27;30.53;;;;;;;9.58;90.43;98652.59;5112449;28;20181;-61
2021/12/06 04:04:40;;;;;;;69.20;30.70;;;;;;;9.73;90.67;98682.59;5112389;28;20189;-61
2021/12/06 04:07:10;;;;;;;73.73;33.37;;;;;;;9.67;91.34;98685.97;5112099;28;20189;-62
2021/12/06 04:09:37;;;;;;;62.50;30.43;;;;;;;9.73;91.25;98683.47;5112296;28;20193;-61
2021/12/06 04:12:05;;;;;;;62.37;29.80;;;;;;;9.73;90.74;98683.47;5112350;28;20225;-62
2021/12/06 04:14:32;;;;;;;75.90;33.10;;;;;;;9.71;91.01;98695.44;5112458;28;20188;-62
2021/12/06 04:16:58;;;;;;;67.73;30.87;;;;;;;9.72;90.73;98691.16;5112743;28;20247;-61
2021/12/06 04:19:25;;;;;;;62.67;30.90;;;;;;;9.71;90.56;98681.75;5112122;28;20208;-61
2021/12/06 04:21:52;;;;;;;65.57;31.13;;;;;;;9.73;90.54;98680.03;5112371;28;20978;-61
2021/12/06 04:24:21;;;;;;;60.10;29.43;;;;;;;9.72;89.75;98668.94;5112169;28;20518;-61
2021/12/06 04:26:48;;;;;;;59.07;30.00;;;;;;;9.73;89.54;98675.78;5111693;28;20233;-61
2021/12/06 04:29:16;;;;;;;58.73;28.87;;;;;;;9.75;88.99;98670.66;5111829;28;20197;-62
2021/12/06 04:31:48;;;;;;;57.77;29.37;;;;;;;9.69;89.19;98661.22;5111236;28;20217;-62
2021/12/06 04:34:15;;;;;;;56.83;27.67;;;;;;;9.77;88.95;98671.53;5111408;28;20683;-61
2021/12/06 04:36:44;;;;;;;55.70;28.87;;;;;;;9.56;88.78;98649.16;5111924;28;20190;-62
2021/12/06 04:39:14;;;;;;;59.27;29.37;;;;;;;9.71;89.09;98667.22;5111635;28;20554;-61
2021/12/06 04:41:43;;;;;;;59.77;30.37;;;;;;;9.77;89.13;98682.66;5111845;28;20185;-61
2021/12/06 04:44:11;;;;;;;61.70;31.47;;;;;;;9.82;89.04;98680.97;5111353;28;20197;-60
2021/12/06 04:46:38;;;;;;;59.83;29.97;;;;;;;9.79;89.06;98678.38;5111426;28;20683;-61
2021/12/06 04:49:07;;;;;;;54.63;29.37;;;;;;;9.81;88.91;98679.25;5111249;28;20618;-60
2021/12/06 04:51:35;;;;;;;49.47;26.90;;;;;;;9.75;88.90;98686.88;5111181;28;20208;-60
2021/12/06 04:54:03;;;;;;;54.60;28.07;;;;;;;9.77;88.98;98689.47;5111200;28;20258;-61
2021/12/06 04:56:33;;;;;;;52.93;28.30;;;;;;;9.71;89.36;98695.44;5111066;28;20250;-60
2021/12/06 04:59:11;;;;;;;46.30;26.77;;;;;;;9.69;89.39;98683.44;5111269;28;20591;-61
2021/12/06 05:01:39;;;;;;;55.50;30.70;;;;;;;9.67;88.58;98668.03;5110824;28;20355;-60
2021/12/06 05:04:09;;;;;;;67.07;36.40;;;;;;;9.57;89.39;98685.91;5111111;28;20194;-61
2021/12/06 05:06:39;;;;;;;68.13;35.93;;;;;;;9.58;89.88;98673.13;5111154;28;20199;-61
2021/12/06 05:09:10;;;;;;;64.87;35.80;;;;;;;9.45;89.87;98676.41;5110928;28;20735;-60
2021/12/06 05:11:38;;;;;;;60.83;33.03;;;;;;;9.48;90.50;98686.69;5111217;28;20205;-60
2021/12/06 05:14:06;;;;;;;67.37;36.27;;;;;;;9.53;90.10;98666.25;5110956;28;20221;-60
2021/12/06 05:16:35;;;;;;;62.00;35.20;;;;;;;9.57;89.99;98683.34;5110990;28;20192;-60
2021/12/06 05:19:03;;;;;;;68.27;32.77;;;;;;;9.61;90.48;98680.84;5110819;28;20601;-61
2021/12/06 05:21:30;;;;;;;61.67;32.10;;;;;;;9.53;90.04;98674.81;5110870;28;20562;-61
2021/12/06 05:23:57;;;;;;;61.73;30.67;;;;;;;9.44;90.92;98690.09;5110504;28;20239;-61
2021/12/06 05:26:24;;;;;;;61.87;30.53;;;;;;;9.45;91.28;98699.50;5110759;28;20233;-60
2021/12/06 05:28:56;;;;;;;75.53;32.77;;;;;;;9.46;91.75;98684.16;5110717;28;20216;-62
2021/12/06 05:31:25;;;;;;;65.93;31.07;;;;;;;9.32;91.56;98688.31;5110647;28;20599;-60
2021/12/06 05:33:56;;;;;;;74.70;36.93;;;;;;;9.31;92.48;98696.00;5110595;28;20236;-61
2021/12/06 05:36:23;;;;;;;81.90;37.07;;;;;;;9.37;92.75;98681.50;5110576;28;20216;-60
2021/12/06 05:38:51;;;;;;;89.47;38.47;;;;;;;9.26;92.95;98685.69;5110695;28;20197;-60
2021/12/06 05:41:18;;;;;;;82.63;37.27;;;;;;;9.26;93.83;98698.50;5110415;28;20197;-60
2021/12/06 05:43:45;;;;;;;78.90;39.93;;;;;;;9.33;93.22;98710.53;5112225;28;20190;-60
2021/12/06 05:46:12;;;;;;;84.67;36.73;;;;;;;9.35;92.86;98720.78;5114696;28;20194;-61
2021/12/06 05:48:40;;;;;;;67.13;37.47;;;;;;;9.37;92.92;98714.81;5114841;28;20201;-61
2021/12/06 05:51:07;;;;;;;74.70;37.10;;;;;;;9.34;92.58;98707.09;5114673;28;20194;-60
2021/12/06 05:53:35;;;;;;;83.32;46.05;;;;;;;9.49;92.66;98699.56;5113405;28;20442;-60
2021/12/06 05:56:02;;;;;;;72.70;39.10;;;;;;;9.60;92.02;98703.88;5114567;28;20246;-59
2021/12/06 05:58:29;;;;;;;74.20;38.57;;;;;;;9.60;91.12;98699.63;5114497;28;20232;-60
2021/12/06 06:00:57;;;;;;;76.63;38.43;;;;;;;9.64;91.27;98703.06;5114365;28;20204;-61
2021/12/06 06:03:24;;;;;;;79.53;36.67;;;;;;;9.71;90.79;98708.25;5109683;28;20221;-57
2021/12/06 06:05:52;;;;;;;69.13;35.03;;;;;;;9.75;90.52;98704.84;5090993;28;20198;-57
2021/12/06 06:08:20;;;;;;;62.10;33.90;;;;;;;9.75;90.29;98704.84;5087259;28;20215;-57
2021/12/06 06:10:47;;;;;;;65.40;35.53;;;;;;;9.77;90.14;98704.88;5090772;28;20202;-57
2021/12/06 06:13:14;;;;;;;80.25;45.70;;;;;;;9.59;90.17;98681.66;5092869;28;20875;-57
2021/12/06 06:15:41;;;;;;;89.57;42.10;;;;;;;9.64;90.33;98703.06;5093580;28;20186;-57
2021/12/06 06:18:09;;;;;;;94.60;41.93;;;;;;;9.66;91.22;98715.06;5087198;28;20202;-57
2021/12/06 06:20:39;;;;;;;89.60;41.83;;;;;;;9.60;91.71;98709.03;5085940;28;20189;-57
2021/12/06 06:23:08;;;;;;;106.90;41.90;;;;;;;9.62;92.26;98720.13;5073134;28;20199;-57
2021/12/06 06:25:35;;;;;;;108.60;43.93;;;;;;;9.61;92.50;98727.00;5091352;28;20191;-58
2021/12/06 06:28:02;;;;;;;101.93;44.77;;;;;;;9.66;92.83;98737.28;5093209;28;20704;-57
2021/12/06 06:30:29;;;;;;;104.17;46.03;;;;;;;9.68;92.86;98733.00;5089812;28;20201;-58
2021/12/06 06:32:55;;;;;;;91.20;43.63;;;;;;;9.68;92.53;98723.63;5092745;28;20581;-58
2021/12/06 06:35:23;;;;;;;89.77;43.07;;;;;;;9.62;91.92;98709.88;5092776;28;20573;-58
2021/12/06 06:37:50;;;;;;;97.03;45.57;;;;;;;9.70;92.13;98728.75;5092891;28;20190;-60
2021/12/06 06:40:18;;;;;;;92.63;44.03;;;;;;;9.67;92.11;98724.44;5092986;28;20194;-58
2021/12/06 06:42:46;;;;;;;95.30;44.77;;;;;;;9.75;92.22;98722.81;5093253;28;20201;-57
2021/12/06 06:45:16;;;;;;;107.53;44.20;;;;;;;9.71;92.15;98720.22;5092691;28;20191;-57
2021/12/06 06:47:44;;;;;;;94.93;45.43;;;;;;;9.72;91.85;98722.81;5092687;28;20195;-57
2021/12/06 06:50:11;;;;;;;89.70;44.80;;;;;;;9.69;91.61;98701.41;5092764;28;20201;-56
2021/12/06 06:52:38;;;;;;;89.50;43.37;;;;;;;9.78;91.33;98711.72;5092665;28;20740;-57
2021/12/06 06:55:09;;;;;;;86.67;42.57;;;;;;;9.83;90.80;98710.88;5091702;28;20683;-56
2021/12/06 06:57:37;;;;;;;87.67;42.80;;;;;;;9.88;90.62;98724.63;5090213;28;20190;-62
2021/12/06 07:00:06;;;;;;;99.97;45.83;;;;;;;9.95;90.66;98713.53;5090808;28;20205;-61
2021/12/06 07:02:33;;;;;;;83.17;43.23;;;;;;;9.91;89.84;98713.53;5092541;28;20182;-61
2021/12/06 07:04:59;;;;;;;74.13;38.50;;;;;;;9.91;89.47;98705.81;5092502;28;20195;-61
2021/12/06 07:07:26;;;;;;;74.63;37.27;;;;;;;9.93;89.33;98701.56;5097913;28;20561;-62
2021/12/06 07:09:53;;;;;;;72.63;38.30;;;;;;;9.94;88.94;98705.84;5106878;28;20212;-62
2021/12/06 07:12:20;;;;;;;67.60;35.77;;;;;;;9.95;88.86;98717.81;5112863;28;20205;-62
2021/12/06 07:14:49;;;;;;;73.43;37.33;;;;;;;9.95;88.54;98698.16;5112643;28;20203;-62
2021/12/06 07:17:16;;;;;;;69.87;38.13;;;;;;;10.02;88.19;98709.31;5112283;28;20204;-62
2021/12/06 07:19:44;;;;;;;76.10;38.30;;;;;;;10.07;88.10;98700.78;5112230;28;20216;-63
2021/12/06 07:22:12;;;;;;;69.20;34.63;;;;;;;10.11;87.86;98695.69;5111832;28;20197;-62
2021/12/06 07:24:39;;;;;;;69.43;34.70;;;;;;;10.14;87.77;98693.13;5088947;28;20260;-62
2021/12/06 07:27:06;;;;;;;57.03;31.03;;;;;;;10.21;87.15;98692.31;5075895;28;20226;-61
2021/12/06 07:29:36;;;;;;;57.13;30.17;;;;;;;10.37;85.79;98696.66;5071450;28;20605;-62
2021/12/06 07:32:05;;;;;;;56.70;30.80;;;;;;;10.44;84.77;98704.41;5071450;28;20198;-62
2021/12/06 07:34:34;;;;;;;56.00;30.77;;;;;;;10.47;84.26;98706.97;5071543;28;20219;-61
2021/12/06 07:37:01;;;;;;;48.33;27.97;;;;;;;10.55;83.42;98702.72;5072036;28;20192;-61
2021/12/06 07:39:28;;;;;;;48.10;28.13;;;;;;;10.54;83.03;98701.03;5071467;28;20202;-61
2021/12/06 07:41:56;;;;;;;53.57;28.53;;;;;;;10.57;83.20;98698.47;5071574;28;20211;-61
2021/12/06 07:44:23;;;;;;;51.10;30.07;;;;;;;10.61;82.20;98699.31;5071102;28;20681;-61
2021/12/06 07:46:52;;;;;;;50.67;29.07;;;;;;;10.63;82.56;98695.03;5071406;28;20665;-61
2021/12/06 07:49:20;;;;;;;56.33;28.70;;;;;;;10.71;82.42;98703.66;5071245;28;20202;-61
2021/12/06 07:51:47;;;;;;;53.70;30.00;;;;;;;10.65;82.17;98701.94;5071621;28;20176;-62
2021/12/06 07:54:14;;;;;;;55.67;33.00;;;;;;;10.68;82.59;98696.78;5081910;28;20211;-62
2021/12/06 07:56:41;;;;;;;58.17;33.83;;;;;;;10.73;82.58;98704.50;5099774;28;20199;-62
2021/12/06 07:59:08;;;;;;;57.87;34.03;;;;;;;10.87;82.55;98691.69;5091476;28;20234;-63
2021/12/06 08:01:35;;;;;;;68.10;34.93;;;;;;;11.00;81.66;98671.16;5091424;28;20597;-62
2021/12/06 08:04:02;;;;;;;60.30;33.70;;;;;;;11.11;81.21;98677.16;5091334;28;20201;-62
2021/12/06 08:06:30;;;;;;;74.43;37.73;;;;;;;11.20;80.73;98674.63;5090609;28;20194;-63
2021/12/06 08:08:57;;;;;;;78.93;40.10;;;;;;;11.09;81.67;98685.75;5091393;28;20562;-62
2021/12/06 08:11:25;;;;;;;71.97;39.23;;;;;;;11.11;82.26;98682.31;5091394;28;20198;-61
2021/12/06 08:13:55;;;;;;;74.50;38.93;;;;;;;11.14;81.99;98686.59;5092790;28;20219;-61
2021/12/06 08:16:24;;;;;;;76.90;38.70;;;;;;;11.26;82.32;98702.88;5091075;28;20333;-61
2021/12/06 08:18:51;;;;;;;82.90;46.45;;;;;;;11.36;82.15;98672.03;5094428;28;20495;-62
2021/12/06 08:21:20;;;;;;;80.00;40.50;;;;;;;11.53;81.09;98678.03;5111541;28;20190;-61
2021/12/06 08:23:50;;;;;;;83.30;40.90;;;;;;;11.38;81.30;98683.16;5111223;28;20182;-63
2021/12/06 08:26:19;;;;;;;78.07;39.17;;;;;;;11.23;82.18;98671.19;5110982;28;20240;-61
2021/12/06 08:28:48;;;;;;;80.93;41.63;;;;;;;11.36;81.54;98680.63;5111060;28;20198;-63
2021/12/06 08:31:18;;;;;;;79.00;39.07;;;;;;;11.40;81.66;98678.91;5111608;28;20638;-61
2021/12/06 08:33:47;;;;;;;81.23;35.30;;;;;;;11.24;82.24;98685.75;5111282;28;20221;-61
2021/12/06 08:36:14;;;;;;;78.43;36.70;;;;;;;11.18;82.87;98675.44;5110689;28;20193;-61
2021/12/06 08:38:42;;;;;;;80.55;42.63;;;;;;;11.18;83.14;98668.59;5110825;28;20500;-62
2021/12/06 08:41:15;;;;;;;83.03;40.77;;;;;;;11.20;83.15;98672.06;5110551;28;20198;-61
2021/12/06 08:43:43;;;;;;;85.07;40.80;;;;;;;11.25;82.75;98670.34;5111029;28;20196;-61
2021/12/06 08:46:13;;;;;;;90.07;40.87;;;;;;;11.27;82.41;98673.75;5110990;28;20193;-61
2021/12/06 08:48:42;;;;;;;77.70;40.70;;;;;;;11.21;82.44;98681.44;5110795;28;20190;-62
2021/12/06 08:51:11;;;;;;;79.33;41.03;;;;;;;11.22;82.82;98674.59;5110420;28;20193;-61
2021/12/06 08:53:39;;;;;;;85.10;39.87;;;;;;;11.18;83.28;98675.44;5110600;28;20232;-61
2021/12/06 08:56:06;;;;;;;79.57;40.73;;;;;;;11.14;83.39;98668.59;5110584;28;20193;-61
2021/12/06 08:58:35;;;;;;;81.33;42.63;;;;;;;11.21;83.75;98678.88;5110587;28;20657;-62
2021/12/06 09:01:02;;;;;;;94.93;42.40;;;;;;;11.21;82.89;98667.72;5110693;28;20202;-62
2021/12/06 09:03:30;;;;;;;80.30;40.40;;;;;;;11.43;82.24;98676.31;5110360;28;20198;-60
2021/12/06 09:05:58;;;;;;;74.83;38.63;;;;;;;11.51;82.64;98670.31;5110451;28;20197;-61
2021/12/06 09:08:25;;;;;;;74.90;37.03;;;;;;;11.59;81.36;98660.03;5110599;28;20182;-57
2021/12/06 09:10:53;;;;;;;75.70;36.13;;;;;;;11.37;81.62;98650.63;5110579;28;20212;-56
2021/12/06 09:13:22;;;;;;;78.50;35.07;;;;;;;11.44;82.74;98642.03;5095461;28;20223;-56
2021/12/06 09:15:53;;;;;;;65.63;33.33;;;;;;;11.39;81.96;98623.16;5099234;28;20201;-56
2021/12/06 09:18:20;;;;;;;79.17;37.90;;;;;;;11.41;82.42;98644.59;5110300;28;20205;-58
2021/12/06 09:20:48;;;;;;;81.80;35.77;;;;;;;11.40;82.92;98642.91;5110369;28;20190;-57
2021/12/06 09:23:15;;;;;;;74.97;36.93;;;;;;;11.43;83.38;98648.88;5100495;28;20194;-57
2021/12/06 09:25:44;;;;;;;74.27;35.77;;;;;;;11.45;82.93;98654.91;5098306;28;20219;-57
2021/12/06 09:28:13;;;;;;;77.73;36.73;;;;;;;11.50;83.45;98653.19;5089626;28;20309;-57
2021/12/06 09:30:42;;;;;;;77.23;35.70;;;;;;;11.54;83.35;98648.84;5069660;28;20203;-57
2021/12/06 09:33:13;;;;;;;68.17;33.73;;;;;;;11.54;83.09;98641.16;5093681;28;20202;-57
2021/12/06 09:35:43;;;;;;;74.63;37.17;;;;;;;11.48;83.87;98630.88;5090233;28;20277;-57
2021/12/06 09:38:14;;;;;;;75.37;37.93;;;;;;;11.32;83.73;98616.34;5090037;28;20286;-57
2021/12/06 09:40:43;;;;;;;80.80;40.00;;;;;;;11.24;84.97;98606.91;5089765;28;20190;-57
2021/12/06 09:43:14;;;;;;;78.33;39.90;;;;;;;11.04;85.92;98603.47;5080791;28;20202;-57
2021/12/06 09:45:43;;;;;;;82.63;39.57;;;;;;;11.11;85.98;98605.19;5078965;28;20611;-57
2021/12/06 09:48:14;;;;;;;81.13;37.73;;;;;;;11.11;85.92;98596.63;5082433;28;20183;-57
2021/12/06 09:50:45;;;;;;;72.67;34.73;;;;;;;11.09;87.10;98594.06;5082624;28;20627;-57
2021/12/06 09:53:17;;;;;;;73.55;38.20;;;;;;;11.24;86.38;98594.03;5079970;28;20194;-57
2021/12/06 09:55:44;;;;;;;81.47;37.67;;;;;;;11.32;86.48;98598.34;5079465;28;20191;-57
2021/12/06 09:58:12;;;;;;;83.33;39.73;;;;;;;11.44;86.02;98600.88;5089863;28;20451;-58
2021/12/06 10:00:44;;;;;;;61.40;32.03;;;;;;;11.62;85.59;98585.41;5102466;28;20564;-57
2021/12/06 10:03:15;;;;;;;56.40;30.27;;;;;;;11.61;84.28;98573.41;5089127;28;20195;-57
2021/12/06 10:05:43;;;;;;;63.43;31.10;;;;;;;11.82;84.57;98571.66;5089447;28;20195;-57
2021/12/06 10:08:10;;;;;;;66.20;34.50;;;;;;;11.97;82.79;98560.44;5089357;28;20198;-57
2021/12/06 10:10:37;;;;;;;58.27;30.83;;;;;;;11.59;83.85;98567.41;5100804;28;20217;-57
2021/12/06 10:13:04;;;;;;;58.07;30.97;;;;;;;11.56;84.73;98572.56;5100829;28;20291;-57
2021/12/06 10:15:31;;;;;;;62.63;32.17;;;;;;;11.70;84.85;98550.25;5089431;28;20611;-57
2021/12/06 10:18:00;;;;;;;62.20;32.37;;;;;;;11.66;84.59;98535.66;5089342;28;20190;-57
2021/12/06 10:20:30;;;;;;;54.67;30.00;;;;;;;11.35;85.21;98546.88;5072059;28;20557;-57
2021/12/06 10:22:58;;;;;;;48.40;26.63;;;;;;;11.26;86.46;98547.78;5089521;28;20197;-57
2021/12/06 10:25:35;;;;;;;53.00;26.80;;;;;;;11.38;85.99;98542.59;5093871;28;20198;-57
2021/12/06 10:28:04;;;;;;;57.20;30.47;;;;;;;11.50;86.24;98534.00;5089009;28;20234;-58
2021/12/06 10:30:34;;;;;;;56.70;31.43;;;;;;;11.67;85.95;98534.81;5090686;28;20234;-57
2021/12/06 10:33:03;;;;;;;58.43;31.87;;;;;;;11.91;84.47;98529.56;5093051;28;20201;-57
2021/12/06 10:35:32;;;;;;;55.40;32.37;;;;;;;12.01;84.32;98520.94;5092890;28;20633;-57
2021/12/06 10:37:59;;;;;;;61.47;31.17;;;;;;;12.17;83.61;98513.97;5093167;28;20198;-57
2021/12/06 10:40:31;;;;;;;61.47;32.27;;;;;;;12.24;82.86;98533.69;5092638;28;20202;-58
2021/12/06 10:43:01;;;;;;;54.83;31.13;;;;;;;12.11;83.07;98525.19;5093143;28;20194;-58
2021/12/06 10:45:30;;;;;;;63.77;33.43;;;;;;;11.87;84.07;98515.00;5092891;28;20190;-57
2021/12/06 10:48:13;;;;;;;60.73;34.10;;;;;;;12.08;83.83;98529.50;5092701;28;20194;-57
2021/12/06 10:50:46;;;;;;;65.13;35.20;;;;;;;12.18;82.92;98531.16;5092694;28;20504;-57
2021/12/06 10:53:15;;;;;;;75.83;36.70;;;;;;;12.20;82.78;98522.56;5092996;28;20187;-58
2021/12/06 10:55:44;;;;;;;67.97;34.83;;;;;;;12.10;83.21;98520.91;5092274;28;20341;-58
2021/12/06 10:58:14;;;;;;;66.00;35.40;;;;;;;12.34;82.76;98513.03;5092262;28;20693;-58
2021/12/06 11:00:50;;;;;;;63.37;33.00;;;;;;;12.54;81.46;98500.00;5092198;28;20670;-57
2021/12/06 11:03:30;;;;;;;56.43;32.37;;;;;;;12.21;81.76;98492.50;5092471;28;20194;-57
2021/12/06 11:06:02;;;;;;;63.77;32.07;;;;;;;12.16;82.13;98502.00;5092517;28;20187;-58
2021/12/06 11:08:30;;;;;;;57.40;32.70;;;;;;;12.13;82.75;98497.72;5092271;28;20691;-57
2021/12/06 11:11:00;;;;;;;61.83;33.93;;;;;;;12.00;83.17;98460.03;5092168;28;20734;-58
2021/12/06 11:13:29;;;;;;;61.90;34.90;;;;;;;12.30;82.29;98477.88;5091974;28;20554;-57
2021/12/06 11:16:10;;;;;;;63.40;33.33;;;;;;;12.23;82.50;98476.19;5092062;28;20214;-58
2021/12/06 11:18:50;;;;;;;62.27;35.27;;;;;;;12.33;82.32;98482.97;5092029;28;20191;-57
2021/12/06 11:21:26;;;;;;;61.83;34.20;;;;;;;12.32;81.73;98470.13;5091962;28;20186;-58
2021/12/06 11:24:09;;;;;;;58.63;34.17;;;;;;;12.39;81.67;98472.63;5092239;28;20195;-57
2021/12/06 11:26:40;;;;;;;59.77;34.13;;;;;;;12.48;81.41;98465.69;5091529;28;20234;-58
2021/12/06 11:29:10;;;;;;;56.10;32.20;;;;;;;12.65;80.82;98458.69;5091793;28;20194;-58
2021/12/06 11:31:38;;;;;;;58.63;34.37;;;;;;;12.95;80.37;98460.97;5092031;28;20561;-57
2021/12/06 11:34:07;;;;;;;49.80;31.37;;;;;;;13.12;79.00;98435.91;5091571;28;20218;-57